Weather History for KGHW - May, 2014

Change the Weather History Date:

Thursday, May 15, 2014

  Actual Average Record
Temperature  
Mean Temperature 42 °F -  
Max Temperature 46 °F 69 °F 93 °F (2001)
Min Temperature 37 °F 44 °F 25 °F (1959)
Degree Days  
Heating Degree Days 24    
Moisture  
Dew Point 29 °F    
Average Humidity 63    
Maximum Humidity 75    
Minimum Humidity 46    
Precipitation  
Precipitation 0.00 in - - ()
Sea Level Pressure  
Sea Level Pressure 30.20 in    
Wind  
Wind Speed 8 mph (NNW)    
Max Wind Speed 14 mph    
Max Gust Speed 17 mph    
Visibility 10 miles    
Events      
Averages and records for this station are not official NWS values.
T = Trace of Precipitation, MM = Missing Value Source: NWS Daily Summary

Daily Weather History Graph

Daily Weather History Graph

Search for Another Location

Airport or City:

Trip Planner

Search our weather history database for the weather conditions in past years. The results will help you decide how hot, cold, wet, or windy it might be!

Date:

Astronomy

May. 15, 2014 Rise Set
Actual Time 5:50 AM CDT 8:45 PM CDT
Civil Twilight 5:15 AM CDT 9:20 PM CDT
Nautical Twilight 4:31 AM CDT 10:05 PM CDT
Astronomical Twilight 3:38 AM CDT 10:58 PM CDT
Moon 9:54 PM CDT (5/15) 6:38 AM CDT (5/15)
Length of Visible Light 16h 05m
Length of Day
14h 55m
Full, 99% of the Moon is Illuminated
May 15
Full
May 21
Last Quarter
May 28
New
Jun 5
First Quarter
Jun 12
Full

Hourly Weather History & Observations

Time (CDT) Temp. Windchill Dew Point Humidity Pressure Visibility Wind Dir Wind Speed Gust Speed Precip Events Conditions
12:14 AM 37.4 °F 32.1 °F 30.2 °F 75% 30.25 in 10.0 mi North 6.9 mph - N/A   Overcast
12:33 AM 37.4 °F 30.8 °F 30.2 °F 75% 30.25 in 10.0 mi North 9.2 mph - N/A   Overcast
12:53 AM 37.4 °F 32.1 °F 28.4 °F 70% 30.25 in 10.0 mi North 6.9 mph - N/A   Overcast
1:13 AM 37.4 °F 32.1 °F 30.2 °F 75% 30.25 in 10.0 mi North 6.9 mph - N/A   Overcast
1:33 AM 37.4 °F 31.4 °F 28.4 °F 70% 30.24 in 10.0 mi North 8.1 mph - N/A   Overcast
1:53 AM 37.4 °F 30.8 °F 30.2 °F 75% 30.24 in 10.0 mi North 9.2 mph - N/A   Overcast
2:13 AM 37.4 °F 32.1 °F 28.4 °F 70% 30.23 in 10.0 mi North 6.9 mph - N/A   Overcast
2:33 AM 37.4 °F 31.4 °F 28.4 °F 70% 30.23 in 10.0 mi North 8.1 mph - N/A   Overcast
2:53 AM 37.4 °F 30.8 °F 28.4 °F 70% 30.23 in 10.0 mi North 9.2 mph - N/A   Overcast
3:13 AM 37.4 °F 31.4 °F 28.4 °F 70% 30.22 in 10.0 mi NNW 8.1 mph - N/A   Overcast
3:33 AM 37.4 °F 32.1 °F 28.4 °F 70% 30.22 in 10.0 mi NNW 6.9 mph - N/A   Overcast
3:53 AM 37.4 °F 31.4 °F 28.4 °F 70% 30.22 in 10.0 mi NNW 8.1 mph - N/A   Overcast
4:13 AM 37.4 °F 32.8 °F 28.4 °F 70% 30.22 in 10.0 mi NNW 5.8 mph - N/A   Overcast
4:34 AM 37.4 °F 34.9 °F 28.4 °F 70% 30.22 in 10.0 mi North 3.5 mph - N/A   Overcast
4:53 AM 37.4 °F 32.1 °F 28.4 °F 70% 30.22 in 10.0 mi North 6.9 mph - N/A   Overcast
5:13 AM 37.4 °F 31.4 °F 28.4 °F 70% 30.22 in 10.0 mi North 8.1 mph - N/A   Overcast
5:33 AM 37.4 °F 32.1 °F 28.4 °F 70% 30.21 in 10.0 mi North 6.9 mph - N/A   Overcast
5:53 AM 37.4 °F 31.4 °F 28.4 °F 70% 30.21 in 10.0 mi North 8.1 mph - N/A   Overcast
6:13 AM 37.4 °F 32.1 °F 28.4 °F 70% 30.21 in 10.0 mi North 6.9 mph - N/A   Overcast
6:33 AM 37.4 °F 32.1 °F 28.4 °F 70% 30.22 in 10.0 mi North 6.9 mph - N/A   Overcast
6:53 AM 37.4 °F 31.4 °F 28.4 °F 70% 30.22 in 10.0 mi North 8.1 mph - N/A   Overcast
7:13 AM 37.4 °F 31.4 °F 30.2 °F 75% 30.22 in 10.0 mi North 8.1 mph - N/A   Overcast
7:33 AM 37.4 °F 29.3 °F 30.2 °F 75% 30.22 in 10.0 mi North 12.7 mph - N/A   Overcast
7:53 AM 37.4 °F 30.8 °F 30.2 °F 75% 30.22 in 10.0 mi North 9.2 mph - N/A   Overcast
8:13 AM 37.4 °F 30.8 °F 30.2 °F 75% 30.22 in 10.0 mi North 9.2 mph - N/A   Overcast
8:33 AM 37.4 °F 30.8 °F 30.2 °F 75% 30.22 in 10.0 mi North 9.2 mph - N/A   Overcast
8:53 AM 37.4 °F 30.8 °F 30.2 °F 75% 30.22 in 10.0 mi North 9.2 mph - N/A   Overcast
9:14 AM 39.2 °F 32.5 °F 30.2 °F 70% 30.22 in 10.0 mi North 10.4 mph - N/A   Overcast
9:33 AM 39.2 °F 33.0 °F 30.2 °F 70% 30.22 in 10.0 mi North 9.2 mph - N/A   Overcast
10:13 AM 41.0 °F 35.2 °F 28.4 °F 61% 30.22 in 10.0 mi North 9.2 mph - N/A   Overcast
10:32 AM 42.8 °F 35.8 °F 28.4 °F 57% 30.21 in 10.0 mi NNW 13.8 mph 17.3 mph N/A   Overcast
10:54 AM 42.8 °F 37.0 °F 26.6 °F 53% 30.20 in 10.0 mi North 10.4 mph - N/A   Overcast
11:13 AM 42.8 °F 36.2 °F 26.6 °F 53% 30.20 in 10.0 mi NNW 12.7 mph - N/A   Overcast
11:33 AM 42.8 °F 38.6 °F 26.6 °F 53% 30.20 in 10.0 mi North 6.9 mph - N/A   Overcast
11:54 AM 42.8 °F 37.5 °F 26.6 °F 53% 30.20 in 10.0 mi North 9.2 mph - N/A   Overcast
12:13 PM 42.8 °F 37.0 °F 26.6 °F 53% 30.20 in 10.0 mi North 10.4 mph - N/A   Overcast
12:53 PM 42.8 °F 37.5 °F 26.6 °F 53% 30.20 in 10.0 mi NNW 9.2 mph - N/A   Overcast
1:13 PM 42.8 °F 37.0 °F 26.6 °F 53% 30.19 in 10.0 mi North 10.4 mph - N/A   Overcast
1:33 PM 44.6 °F 39.7 °F 26.6 °F 49% 30.19 in 10.0 mi NNW 9.2 mph - N/A   Overcast
2:13 PM 42.8 °F 37.0 °F 28.4 °F 57% 30.19 in 10.0 mi NNW 10.4 mph 16.1 mph N/A   Overcast
2:33 PM 44.6 °F 38.8 °F 28.4 °F 53% 30.19 in 10.0 mi NW 11.5 mph - N/A   Overcast
2:53 PM 44.6 °F 38.8 °F 26.6 °F 49% 30.18 in 10.0 mi North 11.5 mph - N/A   Overcast
3:13 PM 42.8 °F 37.0 °F 26.6 °F 53% 30.18 in 10.0 mi North 10.4 mph - N/A   Overcast
3:33 PM 44.6 °F 38.4 °F 28.4 °F 53% 30.18 in 10.0 mi NNW 12.7 mph 17.3 mph N/A   Mostly Cloudy
3:53 PM 44.6 °F 38.8 °F 28.4 °F 53% 30.17 in 10.0 mi NNW 11.5 mph - N/A   Overcast
4:13 PM 46.4 °F 41.1 °F 26.6 °F 46% 30.17 in 10.0 mi NNW 11.5 mph - N/A   Mostly Cloudy
4:53 PM 44.6 °F 39.2 °F 26.6 °F 49% 30.16 in 10.0 mi NNW 10.4 mph - N/A   Overcast
5:13 PM 44.6 °F 39.2 °F 28.4 °F 53% 30.16 in 10.0 mi North 10.4 mph 17.3 mph N/A   Overcast
5:34 PM 44.6 °F 39.2 °F 28.4 °F 53% 30.16 in 10.0 mi North 10.4 mph - N/A   Overcast
5:53 PM 44.6 °F 39.2 °F 28.4 °F 53% 30.16 in 10.0 mi NNW 10.4 mph - N/A   Overcast
6:13 PM 44.6 °F 38.8 °F 28.4 °F 53% 30.15 in 10.0 mi North 11.5 mph - N/A   Overcast
6:34 PM 42.8 °F 36.6 °F 28.4 °F 57% 30.15 in 10.0 mi North 11.5 mph - N/A   Overcast
6:53 PM 42.8 °F 37.0 °F 28.4 °F 57% 30.16 in 10.0 mi North 10.4 mph - N/A   Overcast
7:13 PM 42.8 °F 37.5 °F 28.4 °F 57% 30.15 in 10.0 mi North 9.2 mph - N/A   Overcast
7:33 PM 42.8 °F 38.0 °F 28.4 °F 57% 30.16 in 10.0 mi North 8.1 mph - N/A   Overcast
7:53 PM 42.8 °F 38.0 °F 28.4 °F 57% 30.16 in 10.0 mi North 8.1 mph - N/A   Overcast
8:13 PM 42.8 °F 38.0 °F 28.4 °F 57% 30.16 in 10.0 mi North 8.1 mph - N/A   Overcast
8:33 PM 42.8 °F 40.1 °F 28.4 °F 57% 30.15 in 10.0 mi North 4.6 mph - N/A   Overcast
8:53 PM 41.0 °F 38.0 °F 28.4 °F 61% 30.15 in 10.0 mi North 4.6 mph - N/A   Overcast
9:13 PM 41.0 °F 39.0 °F 28.4 °F 61% 30.15 in 10.0 mi NNW 3.5 mph - N/A   Overcast
9:33 PM 39.2 °F 37.0 °F 28.4 °F 65% 30.16 in 10.0 mi NNW 3.5 mph - N/A   Overcast
9:53 PM 39.2 °F 37.0 °F 30.2 °F 70% 30.16 in 10.0 mi NNW 3.5 mph - N/A   Overcast
10:13 PM 39.2 °F - 30.2 °F 70% 30.16 in 10.0 mi Calm Calm - N/A   Overcast
10:33 PM 39.2 °F 37.0 °F 30.2 °F 70% 30.16 in 10.0 mi NW 3.5 mph - N/A   Overcast
11:13 PM 39.2 °F - 30.2 °F 70% 30.15 in 10.0 mi Calm Calm - N/A   Overcast
11:33 PM 39.2 °F - 28.4 °F 65% 30.15 in 10.0 mi Calm Calm - N/A   Overcast
11:53 PM 39.2 °F 37.0 °F 28.4 °F 65% 30.14 in 10.0 mi NNW 3.5 mph - N/A   Overcast